sensor_id;sensor_type;location;lat;lon;timestamp;temperature;humidity
4964;DHT22;2497;47.410;9.740;2023-01-05T00:02:18;7.60;99.90
4964;DHT22;2497;47.410;9.740;2023-01-05T00:04:45;7.60;99.90
4964;DHT22;2497;47.410;9.740;2023-01-05T00:07:13;7.70;99.90
4964;DHT22;2497;47.410;9.740;2023-01-05T00:09:41;7.60;99.90
4964;DHT22;2497;47.410;9.740;2023-01-05T00:12:09;7.60;99.90
4964;DHT22;2497;47.410;9.740;2023-01-05T00:14:54;7.60;99.90
4964;DHT22;2497;47.410;9.740;2023-01-05T00:17:38;7.50;99.90
4964;DHT22;2497;47.410;9.740;2023-01-05T00:20:26;7.50;99.90
4964;DHT22;2497;47.410;9.740;2023-01-05T00:23:10;7.60;99.90
4964;DHT22;2497;47.410;9.740;2023-01-05T00:25:40;7.60;99.90
4964;DHT22;2497;47.410;9.740;2023-01-05T00:28:07;7.50;99.90
4964;DHT22;2497;47.410;9.740;2023-01-05T00:30:38;7.60;99.90
4964;DHT22;2497;47.410;9.740;2023-01-05T00:33:07;7.60;99.90
4964;DHT22;2497;47.410;9.740;2023-01-05T00:35:35;7.70;99.90
4964;DHT22;2497;47.410;9.740;2023-01-05T00:38:03;7.70;99.90
4964;DHT22;2497;47.410;9.740;2023-01-05T00:40:31;7.80;99.90
4964;DHT22;2497;47.410;9.740;2023-01-05T00:43:00;7.80;99.90
4964;DHT22;2497;47.410;9.740;2023-01-05T00:45:28;7.80;99.90
4964;DHT22;2497;47.410;9.740;2023-01-05T00:47:55;7.80;99.90
4964;DHT22;2497;47.410;9.740;2023-01-05T00:50:23;7.90;99.90
4964;DHT22;2497;47.410;9.740;2023-01-05T00:52:51;8.10;99.90
4964;DHT22;2497;47.410;9.740;2023-01-05T00:55:18;8.00;99.90
4964;DHT22;2497;47.410;9.740;2023-01-05T00:57:46;8.00;99.90
4964;DHT22;2497;47.410;9.740;2023-01-05T01:00:17;8.00;99.90
4964;DHT22;2497;47.410;9.740;2023-01-05T01:02:44;8.00;99.90
4964;DHT22;2497;47.410;9.740;2023-01-05T01:05:12;8.00;99.90
4964;DHT22;2497;47.410;9.740;2023-01-05T01:07:39;8.00;99.90
4964;DHT22;2497;47.410;9.740;2023-01-05T01:10:08;8.00;99.90
4964;DHT22;2497;47.410;9.740;2023-01-05T01:12:37;7.90;99.90
4964;DHT22;2497;47.410;9.740;2023-01-05T01:15:05;7.80;99.90
4964;DHT22;2497;47.410;9.740;2023-01-05T01:17:34;7.80;99.90
4964;DHT22;2497;47.410;9.740;2023-01-05T01:20:02;7.80;99.90
4964;DHT22;2497;47.410;9.740;2023-01-05T01:22:29;7.80;99.90
4964;DHT22;2497;47.410;9.740;2023-01-05T01:24:56;7.90;99.90
4964;DHT22;2497;47.410;9.740;2023-01-05T01:27:24;7.80;99.90
4964;DHT22;2497;47.410;9.740;2023-01-05T01:29:51;7.90;99.90
4964;DHT22;2497;47.410;9.740;2023-01-05T01:32:19;7.80;99.90
4964;DHT22;2497;47.410;9.740;2023-01-05T01:34:48;7.80;99.90
4964;DHT22;2497;47.410;9.740;2023-01-05T01:37:16;7.80;99.90
4964;DHT22;2497;47.410;9.740;2023-01-05T01:39:43;7.70;99.90
4964;DHT22;2497;47.410;9.740;2023-01-05T01:42:12;7.80;99.90
4964;DHT22;2497;47.410;9.740;2023-01-05T01:44:53;7.80;99.90
4964;DHT22;2497;47.410;9.740;2023-01-05T01:47:34;7.80;99.90
4964;DHT22;2497;47.410;9.740;2023-01-05T01:50:09;7.80;99.90
4964;DHT22;2497;47.410;9.740;2023-01-05T01:52:38;7.80;99.90
4964;DHT22;2497;47.410;9.740;2023-01-05T01:55:07;7.80;99.90
4964;DHT22;2497;47.410;9.740;2023-01-05T01:57:36;7.80;99.90
4964;DHT22;2497;47.410;9.740;2023-01-05T02:00:06;7.80;99.90
4964;DHT22;2497;47.410;9.740;2023-01-05T02:02:34;8.00;99.90
4964;DHT22;2497;47.410;9.740;2023-01-05T02:05:07;7.90;99.90
4964;DHT22;2497;47.410;9.740;2023-01-05T02:07:42;7.80;99.90
4964;DHT22;2497;47.410;9.740;2023-01-05T02:10:10;7.90;99.90
4964;DHT22;2497;47.410;9.740;2023-01-05T02:12:44;7.80;99.90
4964;DHT22;2497;47.410;9.740;2023-01-05T02:15:23;7.80;99.90
4964;DHT22;2497;47.410;9.740;2023-01-05T02:18:06;7.70;99.90
4964;DHT22;2497;47.410;9.740;2023-01-05T02:20:52;7.70;99.90
4964;DHT22;2497;47.410;9.740;2023-01-05T02:26:48;7.70;99.90
4964;DHT22;2497;47.410;9.740;2023-01-05T02:29:49;7.70;99.90
4964;DHT22;2497;47.410;9.740;2023-01-05T02:32:26;7.70;99.90
4964;DHT22;2497;47.410;9.740;2023-01-05T02:35:01;7.80;99.90
4964;DHT22;2497;47.410;9.740;2023-01-05T02:37:38;7.70;99.90
4964;DHT22;2497;47.410;9.740;2023-01-05T02:40:12;7.60;99.90
4964;DHT22;2497;47.410;9.740;2023-01-05T02:42:45;7.60;99.90
4964;DHT22;2497;47.410;9.740;2023-01-05T02:45:15;7.60;99.90
4964;DHT22;2497;47.410;9.740;2023-01-05T02:47:44;7.60;99.90
4964;DHT22;2497;47.410;9.740;2023-01-05T02:50:16;7.60;99.90
4964;DHT22;2497;47.410;9.740;2023-01-05T02:52:52;7.60;99.90
4964;DHT22;2497;47.410;9.740;2023-01-05T02:55:23;7.70;99.90
4964;DHT22;2497;47.410;9.740;2023-01-05T02:57:56;7.90;99.90
4964;DHT22;2497;47.410;9.740;2023-01-05T03:00:28;7.80;99.90
4964;DHT22;2497;47.410;9.740;2023-01-05T03:03:01;7.80;99.90
4964;DHT22;2497;47.410;9.740;2023-01-05T03:05:37;7.80;99.90
4964;DHT22;2497;47.410;9.740;2023-01-05T03:08:06;7.80;99.90
4964;DHT22;2497;47.410;9.740;2023-01-05T03:10:40;7.90;99.90
4964;DHT22;2497;47.410;9.740;2023-01-05T03:13:27;7.80;99.90
4964;DHT22;2497;47.410;9.740;2023-01-05T03:16:10;7.80;99.90
4964;DHT22;2497;47.410;9.740;2023-01-05T03:18:42;7.90;99.90
4964;DHT22;2497;47.410;9.740;2023-01-05T03:21:28;7.90;99.90
4964;DHT22;2497;47.410;9.740;2023-01-05T03:24:09;7.80;99.90
4964;DHT22;2497;47.410;9.740;2023-01-05T03:26:54;8.00;99.90
4964;DHT22;2497;47.410;9.740;2023-01-05T03:29:39;7.90;99.90
4964;DHT22;2497;47.410;9.740;2023-01-05T03:32:26;7.90;99.90
4964;DHT22;2497;47.410;9.740;2023-01-05T03:35:18;7.80;99.90
4964;DHT22;2497;47.410;9.740;2023-01-05T03:38:02;7.80;99.90
4964;DHT22;2497;47.410;9.740;2023-01-05T03:40:34;7.80;99.90
4964;DHT22;2497;47.410;9.740;2023-01-05T03:43:03;7.80;99.90
4964;DHT22;2497;47.410;9.740;2023-01-05T03:45:35;7.70;99.90
4964;DHT22;2497;47.410;9.740;2023-01-05T03:48:04;7.80;99.90
4964;DHT22;2497;47.410;9.740;2023-01-05T03:50:34;7.80;99.90
4964;DHT22;2497;47.410;9.740;2023-01-05T03:53:02;7.90;99.90
4964;DHT22;2497;47.410;9.740;2023-01-05T03:55:30;7.90;99.90
4964;DHT22;2497;47.410;9.740;2023-01-05T03:57:57;8.00;99.90
4964;DHT22;2497;47.410;9.740;2023-01-05T04:00:24;7.90;99.90
4964;DHT22;2497;47.410;9.740;2023-01-05T04:02:51;7.90;99.90
4964;DHT22;2497;47.410;9.740;2023-01-05T04:05:20;8.00;99.90
4964;DHT22;2497;47.410;9.740;2023-01-05T04:07:49;8.10;99.90
4964;DHT22;2497;47.410;9.740;2023-01-05T04:10:16;8.10;99.90
4964;DHT22;2497;47.410;9.740;2023-01-05T04:12:43;8.00;99.90
4964;DHT22;2497;47.410;9.740;2023-01-05T04:15:12;8.00;99.90
4964;DHT22;2497;47.410;9.740;2023-01-05T04:17:40;8.00;99.90
4964;DHT22;2497;47.410;9.740;2023-01-05T04:20:09;8.00;99.90
4964;DHT22;2497;47.410;9.740;2023-01-05T04:22:37;8.00;99.90
4964;DHT22;2497;47.410;9.740;2023-01-05T04:25:08;8.00;99.90
4964;DHT22;2497;47.410;9.740;2023-01-05T04:27:36;8.10;99.90
4964;DHT22;2497;47.410;9.740;2023-01-05T04:30:04;8.20;99.90
4964;DHT22;2497;47.410;9.740;2023-01-05T04:32:32;8.30;99.90
4964;DHT22;2497;47.410;9.740;2023-01-05T04:35:00;8.30;99.90
4964;DHT22;2497;47.410;9.740;2023-01-05T04:37:28;8.30;99.90
4964;DHT22;2497;47.410;9.740;2023-01-05T04:39:55;8.40;99.90
4964;DHT22;2497;47.410;9.740;2023-01-05T04:42:24;8.40;99.90
4964;DHT22;2497;47.410;9.740;2023-01-05T04:44:52;8.40;99.90
4964;DHT22;2497;47.410;9.740;2023-01-05T04:47:20;8.50;99.90
4964;DHT22;2497;47.410;9.740;2023-01-05T04:49:47;8.50;99.90
4964;DHT22;2497;47.410;9.740;2023-01-05T04:52:15;8.50;99.90
4964;DHT22;2497;47.410;9.740;2023-01-05T04:54:43;8.50;99.90
4964;DHT22;2497;47.410;9.740;2023-01-05T04:57:10;8.50;99.90
4964;DHT22;2497;47.410;9.740;2023-01-05T04:59:39;8.50;99.90
4964;DHT22;2497;47.410;9.740;2023-01-05T05:02:08;8.50;99.90
4964;DHT22;2497;47.410;9.740;2023-01-05T05:04:36;8.60;99.90
4964;DHT22;2497;47.410;9.740;2023-01-05T05:07:04;8.60;99.90
4964;DHT22;2497;47.410;9.740;2023-01-05T05:09:31;8.70;99.90
4964;DHT22;2497;47.410;9.740;2023-01-05T05:11:59;8.60;99.90
4964;DHT22;2497;47.410;9.740;2023-01-05T05:14:26;8.70;99.90
4964;DHT22;2497;47.410;9.740;2023-01-05T05:16:57;8.60;99.90
4964;DHT22;2497;47.410;9.740;2023-01-05T05:19:24;8.60;99.90
4964;DHT22;2497;47.410;9.740;2023-01-05T05:21:52;8.50;99.90
4964;DHT22;2497;47.410;9.740;2023-01-05T05:24:19;8.50;99.90
4964;DHT22;2497;47.410;9.740;2023-01-05T05:26:47;8.50;99.90
4964;DHT22;2497;47.410;9.740;2023-01-05T05:29:15;8.50;99.90
4964;DHT22;2497;47.410;9.740;2023-01-05T05:31:42;8.60;99.90
4964;DHT22;2497;47.410;9.740;2023-01-05T05:34:12;8.50;99.90
4964;DHT22;2497;47.410;9.740;2023-01-05T05:36:40;8.60;99.90
4964;DHT22;2497;47.410;9.740;2023-01-05T05:39:10;8.50;99.90
4964;DHT22;2497;47.410;9.740;2023-01-05T05:41:38;8.60;99.90
4964;DHT22;2497;47.410;9.740;2023-01-05T05:44:06;8.70;99.90
4964;DHT22;2497;47.410;9.740;2023-01-05T05:46:34;8.60;99.90
4964;DHT22;2497;47.410;9.740;2023-01-05T05:49:02;8.80;99.90
4964;DHT22;2497;47.410;9.740;2023-01-05T05:51:31;8.90;99.90
4964;DHT22;2497;47.410;9.740;2023-01-05T05:53:58;8.90;99.90
4964;DHT22;2497;47.410;9.740;2023-01-05T05:56:26;9.00;99.90
4964;DHT22;2497;47.410;9.740;2023-01-05T05:58:54;8.90;99.90
4964;DHT22;2497;47.410;9.740;2023-01-05T06:01:21;8.90;99.90
4964;DHT22;2497;47.410;9.740;2023-01-05T06:03:49;8.80;99.90
4964;DHT22;2497;47.410;9.740;2023-01-05T06:06:17;8.80;99.90
4964;DHT22;2497;47.410;9.740;2023-01-05T06:08:46;8.80;99.90
4964;DHT22;2497;47.410;9.740;2023-01-05T06:11:13;8.80;99.90
4964;DHT22;2497;47.410;9.740;2023-01-05T06:13:40;8.80;99.90
4964;DHT22;2497;47.410;9.740;2023-01-05T06:16:08;8.80;99.90
4964;DHT22;2497;47.410;9.740;2023-01-05T06:18:36;8.80;99.90
4964;DHT22;2497;47.410;9.740;2023-01-05T06:21:04;8.80;99.90
4964;DHT22;2497;47.410;9.740;2023-01-05T06:23:31;8.70;99.90
4964;DHT22;2497;47.410;9.740;2023-01-05T06:26:00;8.80;99.90
4964;DHT22;2497;47.410;9.740;2023-01-05T06:28:28;8.70;99.90
4964;DHT22;2497;47.410;9.740;2023-01-05T06:30:55;8.70;99.90
4964;DHT22;2497;47.410;9.740;2023-01-05T06:33:23;8.70;99.90
4964;DHT22;2497;47.410;9.740;2023-01-05T06:35:51;8.70;99.90
4964;DHT22;2497;47.410;9.740;2023-01-05T06:38:18;8.70;99.90
4964;DHT22;2497;47.410;9.740;2023-01-05T06:40:46;8.70;99.90
4964;DHT22;2497;47.410;9.740;2023-01-05T06:43:16;8.70;99.90
4964;DHT22;2497;47.410;9.740;2023-01-05T06:45:43;8.80;99.90
4964;DHT22;2497;47.410;9.740;2023-01-05T06:48:11;8.70;99.90
4964;DHT22;2497;47.410;9.740;2023-01-05T06:50:39;8.80;99.90
4964;DHT22;2497;47.410;9.740;2023-01-05T06:53:07;8.70;99.90
4964;DHT22;2497;47.410;9.740;2023-01-05T06:55:34;8.70;99.90
4964;DHT22;2497;47.410;9.740;2023-01-05T06:58:01;8.70;99.90
4964;DHT22;2497;47.410;9.740;2023-01-05T07:00:31;8.80;99.90
4964;DHT22;2497;47.410;9.740;2023-01-05T07:02:59;8.80;99.90
4964;DHT22;2497;47.410;9.740;2023-01-05T07:05:26;8.80;99.90
4964;DHT22;2497;47.410;9.740;2023-01-05T07:07:54;8.90;99.90
4964;DHT22;2497;47.410;9.740;2023-01-05T07:10:21;9.00;99.90
4964;DHT22;2497;47.410;9.740;2023-01-05T07:12:49;9.00;99.90
4964;DHT22;2497;47.410;9.740;2023-01-05T07:15:17;8.90;99.90
4964;DHT22;2497;47.410;9.740;2023-01-05T07:17:46;8.90;99.90
4964;DHT22;2497;47.410;9.740;2023-01-05T07:20:13;8.90;99.90
4964;DHT22;2497;47.410;9.740;2023-01-05T07:22:41;8.80;99.90
4964;DHT22;2497;47.410;9.740;2023-01-05T07:25:09;8.80;99.90
4964;DHT22;2497;47.410;9.740;2023-01-05T07:27:36;8.90;99.90
4964;DHT22;2497;47.410;9.740;2023-01-05T07:30:05;8.90;99.90
4964;DHT22;2497;47.410;9.740;2023-01-05T07:32:33;8.90;99.90
4964;DHT22;2497;47.410;9.740;2023-01-05T07:35:03;9.00;99.90
4964;DHT22;2497;47.410;9.740;2023-01-05T07:37:31;9.00;99.90
4964;DHT22;2497;47.410;9.740;2023-01-05T07:39:58;9.00;99.90
4964;DHT22;2497;47.410;9.740;2023-01-05T07:42:25;9.00;99.90
4964;DHT22;2497;47.410;9.740;2023-01-05T07:44:55;8.90;99.90
4964;DHT22;2497;47.410;9.740;2023-01-05T07:47:22;8.90;99.90
4964;DHT22;2497;47.410;9.740;2023-01-05T07:49:50;8.90;99.90
4964;DHT22;2497;47.410;9.740;2023-01-05T07:52:19;8.90;99.90
4964;DHT22;2497;47.410;9.740;2023-01-05T07:54:46;9.00;99.90
4964;DHT22;2497;47.410;9.740;2023-01-05T07:57:14;9.00;99.90
4964;DHT22;2497;47.410;9.740;2023-01-05T07:59:42;9.00;99.90
4964;DHT22;2497;47.410;9.740;2023-01-05T08:02:09;9.00;99.90
4964;DHT22;2497;47.410;9.740;2023-01-05T08:04:37;9.00;99.90
4964;DHT22;2497;47.410;9.740;2023-01-05T08:07:05;9.20;99.90
4964;DHT22;2497;47.410;9.740;2023-01-05T08:09:37;9.20;99.90
4964;DHT22;2497;47.410;9.740;2023-01-05T08:12:22;9.30;99.90
4964;DHT22;2497;47.410;9.740;2023-01-05T08:14:49;9.50;99.90
4964;DHT22;2497;47.410;9.740;2023-01-05T08:17:16;9.60;99.90
4964;DHT22;2497;47.410;9.740;2023-01-05T08:19:43;9.60;99.90
4964;DHT22;2497;47.410;9.740;2023-01-05T08:22:10;9.80;99.90
4964;DHT22;2497;47.410;9.740;2023-01-05T08:24:39;9.90;99.90
4964;DHT22;2497;47.410;9.740;2023-01-05T08:27:07;9.90;99.90
4964;DHT22;2497;47.410;9.740;2023-01-05T08:29:34;10.00;99.90
4964;DHT22;2497;47.410;9.740;2023-01-05T08:32:02;10.10;99.90
4964;DHT22;2497;47.410;9.740;2023-01-05T08:34:29;10.20;99.90
4964;DHT22;2497;47.410;9.740;2023-01-05T08:36:57;10.10;99.90
4964;DHT22;2497;47.410;9.740;2023-01-05T08:39:24;10.20;99.90
4964;DHT22;2497;47.410;9.740;2023-01-05T08:41:53;10.20;99.90
4964;DHT22;2497;47.410;9.740;2023-01-05T08:44:20;9.90;99.90
4964;DHT22;2497;47.410;9.740;2023-01-05T08:46:48;9.60;99.90
4964;DHT22;2497;47.410;9.740;2023-01-05T08:49:15;9.40;99.90
4964;DHT22;2497;47.410;9.740;2023-01-05T08:51:43;9.20;99.90
4964;DHT22;2497;47.410;9.740;2023-01-05T08:54:11;9.10;99.90
4964;DHT22;2497;47.410;9.740;2023-01-05T08:56:38;9.10;99.90
4964;DHT22;2497;47.410;9.740;2023-01-05T08:59:11;9.10;99.90
4964;DHT22;2497;47.410;9.740;2023-01-05T09:01:38;9.10;99.90
4964;DHT22;2497;47.410;9.740;2023-01-05T09:04:06;9.20;99.90
4964;DHT22;2497;47.410;9.740;2023-01-05T09:06:33;9.30;99.90
4964;DHT22;2497;47.410;9.740;2023-01-05T09:09:01;9.40;99.90
4964;DHT22;2497;47.410;9.740;2023-01-05T09:11:29;9.50;99.90
4964;DHT22;2497;47.410;9.740;2023-01-05T09:13:58;9.60;99.90
4964;DHT22;2497;47.410;9.740;2023-01-05T09:16:31;9.80;99.90
4964;DHT22;2497;47.410;9.740;2023-01-05T09:19:00;10.00;99.90
4964;DHT22;2497;47.410;9.740;2023-01-05T09:21:29;10.20;99.90
4964;DHT22;2497;47.410;9.740;2023-01-05T09:23:56;10.40;99.90
4964;DHT22;2497;47.410;9.740;2023-01-05T09:26:24;10.60;99.90
4964;DHT22;2497;47.410;9.740;2023-01-05T09:28:51;11.00;99.90
4964;DHT22;2497;47.410;9.740;2023-01-05T09:31:20;11.30;99.90
4964;DHT22;2497;47.410;9.740;2023-01-05T09:33:50;11.50;99.90
4964;DHT22;2497;47.410;9.740;2023-01-05T09:36:18;11.70;99.90
4964;DHT22;2497;47.410;9.740;2023-01-05T09:38:47;11.80;99.90
4964;DHT22;2497;47.410;9.740;2023-01-05T09:41:20;11.90;99.90
4964;DHT22;2497;47.410;9.740;2023-01-05T09:43:50;11.90;99.90
4964;DHT22;2497;47.410;9.740;2023-01-05T09:46:20;11.80;99.90
4964;DHT22;2497;47.410;9.740;2023-01-05T09:48:52;11.80;99.90
4964;DHT22;2497;47.410;9.740;2023-01-05T09:51:21;11.70;99.90
4964;DHT22;2497;47.410;9.740;2023-01-05T09:53:49;11.70;99.90
4964;DHT22;2497;47.410;9.740;2023-01-05T09:56:25;11.60;99.90
4964;DHT22;2497;47.410;9.740;2023-01-05T09:58:59;11.40;99.90
4964;DHT22;2497;47.410;9.740;2023-01-05T10:01:30;11.40;99.90
4964;DHT22;2497;47.410;9.740;2023-01-05T10:04:03;11.30;99.90
4964;DHT22;2497;47.410;9.740;2023-01-05T10:06:34;11.20;99.90
4964;DHT22;2497;47.410;9.740;2023-01-05T10:09:04;11.00;99.90
4964;DHT22;2497;47.410;9.740;2023-01-05T10:11:37;11.00;99.90
4964;DHT22;2497;47.410;9.740;2023-01-05T10:14:28;11.00;99.90
4964;DHT22;2497;47.410;9.740;2023-01-05T10:16:57;10.90;99.90
4964;DHT22;2497;47.410;9.740;2023-01-05T10:19:27;10.80;99.90
4964;DHT22;2497;47.410;9.740;2023-01-05T10:22:03;10.80;99.90
4964;DHT22;2497;47.410;9.740;2023-01-05T10:24:44;10.70;99.90
4964;DHT22;2497;47.410;9.740;2023-01-05T10:27:18;10.60;99.90
4964;DHT22;2497;47.410;9.740;2023-01-05T10:29:53;10.60;99.90
4964;DHT22;2497;47.410;9.740;2023-01-05T10:32:25;10.80;99.90
4964;DHT22;2497;47.410;9.740;2023-01-05T10:34:59;10.80;99.90
4964;DHT22;2497;47.410;9.740;2023-01-05T10:37:55;10.90;99.90
4964;DHT22;2497;47.410;9.740;2023-01-05T10:40:34;11.00;99.90
4964;DHT22;2497;47.410;9.740;2023-01-05T10:43:25;11.00;99.90
4964;DHT22;2497;47.410;9.740;2023-01-05T10:45:56;11.00;99.90
4964;DHT22;2497;47.410;9.740;2023-01-05T10:48:28;11.20;99.90
4964;DHT22;2497;47.410;9.740;2023-01-05T10:50:58;11.30;99.90
4964;DHT22;2497;47.410;9.740;2023-01-05T10:53:26;11.30;99.90
4964;DHT22;2497;47.410;9.740;2023-01-05T10:56:01;11.30;99.90
4964;DHT22;2497;47.410;9.740;2023-01-05T10:58:32;11.40;99.90
4964;DHT22;2497;47.410;9.740;2023-01-05T11:01:02;11.50;99.90
4964;DHT22;2497;47.410;9.740;2023-01-05T11:03:36;11.50;99.90
4964;DHT22;2497;47.410;9.740;2023-01-05T11:06:08;11.50;99.90
4964;DHT22;2497;47.410;9.740;2023-01-05T11:08:46;11.60;99.90
4964;DHT22;2497;47.410;9.740;2023-01-05T11:11:21;11.60;99.90
4964;DHT22;2497;47.410;9.740;2023-01-05T11:13:56;11.60;99.90
4964;DHT22;2497;47.410;9.740;2023-01-05T11:16:28;11.70;99.90
4964;DHT22;2497;47.410;9.740;2023-01-05T11:19:00;11.90;99.90
4964;DHT22;2497;47.410;9.740;2023-01-05T11:21:40;12.00;99.90
4964;DHT22;2497;47.410;9.740;2023-01-05T11:24:26;12.20;99.90
4964;DHT22;2497;47.410;9.740;2023-01-05T11:26:59;12.20;99.90
4964;DHT22;2497;47.410;9.740;2023-01-05T11:29:28;12.10;99.90
4964;DHT22;2497;47.410;9.740;2023-01-05T11:31:58;12.10;99.90
4964;DHT22;2497;47.410;9.740;2023-01-05T11:34:34;11.90;99.90
4964;DHT22;2497;47.410;9.740;2023-01-05T11:37:21;11.80;99.90
4964;DHT22;2497;47.410;9.740;2023-01-05T11:39:51;11.80;99.90
4964;DHT22;2497;47.410;9.740;2023-01-05T11:42:31;11.80;99.90
4964;DHT22;2497;47.410;9.740;2023-01-05T11:45:03;11.90;99.90
4964;DHT22;2497;47.410;9.740;2023-01-05T11:47:35;11.70;99.90
4964;DHT22;2497;47.410;9.740;2023-01-05T11:50:13;11.70;99.90
4964;DHT22;2497;47.410;9.740;2023-01-05T11:52:49;11.60;99.90
4964;DHT22;2497;47.410;9.740;2023-01-05T11:55:25;11.60;99.90
4964;DHT22;2497;47.410;9.740;2023-01-05T11:58:19;11.80;99.90
4964;DHT22;2497;47.410;9.740;2023-01-05T12:00:57;11.90;99.90
4964;DHT22;2497;47.410;9.740;2023-01-05T12:06:27;12.30;99.90
4964;DHT22;2497;47.410;9.740;2023-01-05T12:09:06;12.30;99.90
4964;DHT22;2497;47.410;9.740;2023-01-05T12:11:49;12.30;99.90
4964;DHT22;2497;47.410;9.740;2023-01-05T12:14:29;12.20;99.90
4964;DHT22;2497;47.410;9.740;2023-01-05T12:17:05;12.10;99.90
4964;DHT22;2497;47.410;9.740;2023-01-05T12:19:49;12.10;99.90
4964;DHT22;2497;47.410;9.740;2023-01-05T12:22:32;12.30;99.90
4964;DHT22;2497;47.410;9.740;2023-01-05T12:25:16;12.50;99.90
4964;DHT22;2497;47.410;9.740;2023-01-05T12:30:57;12.80;99.90
4964;DHT22;2497;47.410;9.740;2023-01-05T12:33:49;12.90;99.90
4964;DHT22;2497;47.410;9.740;2023-01-05T12:36:28;13.00;99.90
4964;DHT22;2497;47.410;9.740;2023-01-05T12:42:19;12.80;99.90
4964;DHT22;2497;47.410;9.740;2023-01-05T12:45:00;12.80;99.90
4964;DHT22;2497;47.410;9.740;2023-01-05T12:47:51;12.80;99.90
4964;DHT22;2497;47.410;9.740;2023-01-05T12:50:26;12.80;99.90
4964;DHT22;2497;47.410;9.740;2023-01-05T12:52:58;12.90;99.90
4964;DHT22;2497;47.410;9.740;2023-01-05T12:55:32;12.90;99.90
4964;DHT22;2497;47.410;9.740;2023-01-05T12:58:11;12.90;99.90
4964;DHT22;2497;47.410;9.740;2023-01-05T13:00:40;12.90;99.90
4964;DHT22;2497;47.410;9.740;2023-01-05T13:03:16;12.90;99.90
4964;DHT22;2497;47.410;9.740;2023-01-05T13:05:49;13.00;99.90
4964;DHT22;2497;47.410;9.740;2023-01-05T13:08:21;13.00;99.90
4964;DHT22;2497;47.410;9.740;2023-01-05T13:10:54;13.00;99.90
4964;DHT22;2497;47.410;9.740;2023-01-05T13:13:29;13.00;99.90
4964;DHT22;2497;47.410;9.740;2023-01-05T13:16:03;13.10;99.90
4964;DHT22;2497;47.410;9.740;2023-01-05T13:18:36;13.10;99.90
4964;DHT22;2497;47.410;9.740;2023-01-05T13:21:04;13.10;99.90
4964;DHT22;2497;47.410;9.740;2023-01-05T13:23:36;13.10;99.90
4964;DHT22;2497;47.410;9.740;2023-01-05T13:26:11;13.00;99.90
4964;DHT22;2497;47.410;9.740;2023-01-05T13:28:45;12.90;99.90
4964;DHT22;2497;47.410;9.740;2023-01-05T13:31:43;13.00;99.90
4964;DHT22;2497;47.410;9.740;2023-01-05T13:37:43;13.00;99.90
4964;DHT22;2497;47.410;9.740;2023-01-05T13:40:55;12.90;99.90
4964;DHT22;2497;47.410;9.740;2023-01-05T13:49:51;12.70;99.90
4964;DHT22;2497;47.410;9.740;2023-01-05T13:52:33;12.60;99.90
4964;DHT22;2497;47.410;9.740;2023-01-05T13:55:04;12.60;99.90
4964;DHT22;2497;47.410;9.740;2023-01-05T13:57:37;12.60;99.90
4964;DHT22;2497;47.410;9.740;2023-01-05T14:00:18;12.60;99.90
4964;DHT22;2497;47.410;9.740;2023-01-05T14:03:01;12.60;99.90
4964;DHT22;2497;47.410;9.740;2023-01-05T14:05:39;12.60;99.90
4964;DHT22;2497;47.410;9.740;2023-01-05T14:08:19;12.60;99.90
4964;DHT22;2497;47.410;9.740;2023-01-05T14:11:05;12.50;99.90
4964;DHT22;2497;47.410;9.740;2023-01-05T14:13:42;12.50;99.90
4964;DHT22;2497;47.410;9.740;2023-01-05T14:16:46;12.50;99.90
4964;DHT22;2497;47.410;9.740;2023-01-05T14:22:39;12.20;99.90
4964;DHT22;2497;47.410;9.740;2023-01-05T14:28:21;12.10;99.90
4964;DHT22;2497;47.410;9.740;2023-01-05T14:30:50;12.00;99.90
4964;DHT22;2497;47.410;9.740;2023-01-05T14:33:19;11.90;99.90
4964;DHT22;2497;47.410;9.740;2023-01-05T14:35:47;11.90;99.90
4964;DHT22;2497;47.410;9.740;2023-01-05T14:38:22;11.90;99.90
4964;DHT22;2497;47.410;9.740;2023-01-05T14:40:52;11.80;99.90
4964;DHT22;2497;47.410;9.740;2023-01-05T14:43:31;11.80;99.90
4964;DHT22;2497;47.410;9.740;2023-01-05T14:46:02;11.70;99.90
4964;DHT22;2497;47.410;9.740;2023-01-05T14:48:32;11.70;99.90
4964;DHT22;2497;47.410;9.740;2023-01-05T14:51:19;11.60;99.90
4964;DHT22;2497;47.410;9.740;2023-01-05T14:53:53;11.50;99.90
4964;DHT22;2497;47.410;9.740;2023-01-05T14:56:24;11.50;99.90
4964;DHT22;2497;47.410;9.740;2023-01-05T14:59:05;11.30;99.90
4964;DHT22;2497;47.410;9.740;2023-01-05T15:01:39;11.20;99.90
4964;DHT22;2497;47.410;9.740;2023-01-05T15:04:14;11.20;99.90
4964;DHT22;2497;47.410;9.740;2023-01-05T15:06:56;11.20;99.90
4964;DHT22;2497;47.410;9.740;2023-01-05T15:09:53;11.10;99.90
4964;DHT22;2497;47.410;9.740;2023-01-05T15:12:54;11.10;99.90
4964;DHT22;2497;47.410;9.740;2023-01-05T15:15:39;11.10;99.90
4964;DHT22;2497;47.410;9.740;2023-01-05T15:18:31;11.10;99.90
4964;DHT22;2497;47.410;9.740;2023-01-05T15:21:18;11.20;99.90
4964;DHT22;2497;47.410;9.740;2023-01-05T15:27:00;11.20;99.90
4964;DHT22;2497;47.410;9.740;2023-01-05T15:29:48;11.10;99.90
4964;DHT22;2497;47.410;9.740;2023-01-05T15:32:19;11.00;99.90
4964;DHT22;2497;47.410;9.740;2023-01-05T15:34:52;10.90;99.90
4964;DHT22;2497;47.410;9.740;2023-01-05T15:37:28;10.90;99.90
4964;DHT22;2497;47.410;9.740;2023-01-05T15:39:56;10.80;99.90
4964;DHT22;2497;47.410;9.740;2023-01-05T15:42:35;10.80;99.90
4964;DHT22;2497;47.410;9.740;2023-01-05T15:45:05;10.70;99.90
4964;DHT22;2497;47.410;9.740;2023-01-05T15:47:36;10.60;99.90
4964;DHT22;2497;47.410;9.740;2023-01-05T15:50:05;10.60;99.90
4964;DHT22;2497;47.410;9.740;2023-01-05T15:52:35;10.60;99.90
4964;DHT22;2497;47.410;9.740;2023-01-05T15:55:12;10.60;99.90
4964;DHT22;2497;47.410;9.740;2023-01-05T15:57:41;10.50;99.90
4964;DHT22;2497;47.410;9.740;2023-01-05T16:00:17;10.40;99.90
4964;DHT22;2497;47.410;9.740;2023-01-05T16:02:45;10.40;99.90
4964;DHT22;2497;47.410;9.740;2023-01-05T16:05:15;10.30;99.90
4964;DHT22;2497;47.410;9.740;2023-01-05T16:07:45;10.30;99.90
4964;DHT22;2497;47.410;9.740;2023-01-05T16:10:18;10.30;99.90
4964;DHT22;2497;47.410;9.740;2023-01-05T16:12:51;10.30;99.90
4964;DHT22;2497;47.410;9.740;2023-01-05T16:15:21;10.30;99.90
4964;DHT22;2497;47.410;9.740;2023-01-05T16:17:51;10.30;99.90
4964;DHT22;2497;47.410;9.740;2023-01-05T16:20:22;10.40;99.90
4964;DHT22;2497;47.410;9.740;2023-01-05T16:22:55;10.50;99.90
4964;DHT22;2497;47.410;9.740;2023-01-05T16:25:26;10.50;99.90
4964;DHT22;2497;47.410;9.740;2023-01-05T16:27:59;10.60;99.90
4964;DHT22;2497;47.410;9.740;2023-01-05T16:30:30;10.60;99.90
4964;DHT22;2497;47.410;9.740;2023-01-05T16:33:00;10.50;99.90
4964;DHT22;2497;47.410;9.740;2023-01-05T16:35:31;10.40;99.90
4964;DHT22;2497;47.410;9.740;2023-01-05T16:38:11;10.40;99.90
4964;DHT22;2497;47.410;9.740;2023-01-05T16:43:49;10.40;99.90
4964;DHT22;2497;47.410;9.740;2023-01-05T16:46:30;10.40;99.90
4964;DHT22;2497;47.410;9.740;2023-01-05T16:48:59;10.30;99.90
4964;DHT22;2497;47.410;9.740;2023-01-05T16:51:39;10.30;99.90
4964;DHT22;2497;47.410;9.740;2023-01-05T16:54:14;10.40;99.90
4964;DHT22;2497;47.410;9.740;2023-01-05T16:56:54;10.40;99.90
4964;DHT22;2497;47.410;9.740;2023-01-05T16:59:43;10.40;99.90
4964;DHT22;2497;47.410;9.740;2023-01-05T17:02:42;10.40;99.90
4964;DHT22;2497;47.410;9.740;2023-01-05T17:05:14;10.40;99.90
4964;DHT22;2497;47.410;9.740;2023-01-05T17:07:43;10.30;99.90
4964;DHT22;2497;47.410;9.740;2023-01-05T17:10:23;10.30;99.90
4964;DHT22;2497;47.410;9.740;2023-01-05T17:12:57;10.20;99.90
4964;DHT22;2497;47.410;9.740;2023-01-05T17:15:30;10.10;99.90
4964;DHT22;2497;47.410;9.740;2023-01-05T17:17:58;10.10;99.90
4964;DHT22;2497;47.410;9.740;2023-01-05T17:20:30;10.00;99.90